sensor_id;sensor_type;location;lat;lon;timestamp;P1;durP1;ratioP1;P2;durP2;ratioP2
12908;SDS011;6522;49.622;6.126;2023-11-21T00:02:09;11.80;;;7.65;;
12908;SDS011;6522;49.622;6.126;2023-11-21T00:04:55;12.48;;;7.97;;
12908;SDS011;6522;49.622;6.126;2023-11-21T00:07:42;9.32;;;7.72;;
12908;SDS011;6522;49.622;6.126;2023-11-21T00:10:29;9.05;;;6.37;;
12908;SDS011;6522;49.622;6.126;2023-11-21T00:13:15;11.50;;;7.65;;
12908;SDS011;6522;49.622;6.126;2023-11-21T00:16:02;12.27;;;6.55;;
12908;SDS011;6522;49.622;6.126;2023-11-21T00:18:49;6.68;;;6.07;;
12908;SDS011;6522;49.622;6.126;2023-11-21T00:21:35;6.78;;;5.85;;
12908;SDS011;6522;49.622;6.126;2023-11-21T00:24:22;6.75;;;5.28;;
12908;SDS011;6522;49.622;6.126;2023-11-21T00:27:08;9.45;;;5.43;;
12908;SDS011;6522;49.622;6.126;2023-11-21T00:29:55;5.12;;;4.72;;
12908;SDS011;6522;49.622;6.126;2023-11-21T00:32:41;6.28;;;5.35;;
12908;SDS011;6522;49.622;6.126;2023-11-21T00:35:28;6.40;;;5.75;;
12908;SDS011;6522;49.622;6.126;2023-11-21T00:38:14;5.78;;;5.05;;
12908;SDS011;6522;49.622;6.126;2023-11-21T00:41:01;5.75;;;5.15;;
12908;SDS011;6522;49.622;6.126;2023-11-21T00:43:47;6.25;;;5.65;;
12908;SDS011;6522;49.622;6.126;2023-11-21T00:46:34;6.62;;;6.03;;
12908;SDS011;6522;49.622;6.126;2023-11-21T00:49:20;9.63;;;5.50;;
12908;SDS011;6522;49.622;6.126;2023-11-21T00:52:07;6.18;;;5.57;;
12908;SDS011;6522;49.622;6.126;2023-11-21T00:54:53;7.97;;;4.97;;
12908;SDS011;6522;49.622;6.126;2023-11-21T00:57:40;6.65;;;5.75;;
12908;SDS011;6522;49.622;6.126;2023-11-21T01:00:26;6.40;;;5.30;;
12908;SDS011;6522;49.622;6.126;2023-11-21T01:03:13;5.47;;;4.40;;
12908;SDS011;6522;49.622;6.126;2023-11-21T01:05:59;6.95;;;5.53;;
12908;SDS011;6522;49.622;6.126;2023-11-21T01:08:46;7.18;;;5.50;;
12908;SDS011;6522;49.622;6.126;2023-11-21T01:11:32;5.97;;;5.47;;
12908;SDS011;6522;49.622;6.126;2023-11-21T01:14:19;5.32;;;4.60;;
12908;SDS011;6522;49.622;6.126;2023-11-21T01:17:06;8.07;;;5.03;;
12908;SDS011;6522;49.622;6.126;2023-11-21T01:19:52;4.75;;;4.35;;
12908;SDS011;6522;49.622;6.126;2023-11-21T01:22:39;6.30;;;4.50;;
12908;SDS011;6522;49.622;6.126;2023-11-21T01:25:26;5.20;;;4.70;;
12908;SDS011;6522;49.622;6.126;2023-11-21T01:28:12;5.75;;;4.90;;
12908;SDS011;6522;49.622;6.126;2023-11-21T01:30:59;5.15;;;4.55;;
12908;SDS011;6522;49.622;6.126;2023-11-21T01:33:46;6.30;;;5.20;;
12908;SDS011;6522;49.622;6.126;2023-11-21T01:36:32;6.35;;;5.12;;
12908;SDS011;6522;49.622;6.126;2023-11-21T01:39:18;5.50;;;4.85;;
12908;SDS011;6522;49.622;6.126;2023-11-21T01:42:05;7.65;;;5.25;;
12908;SDS011;6522;49.622;6.126;2023-11-21T01:44:51;6.57;;;4.72;;
12908;SDS011;6522;49.622;6.126;2023-11-21T01:47:38;5.57;;;4.85;;
12908;SDS011;6522;49.622;6.126;2023-11-21T01:50:24;6.10;;;4.85;;
12908;SDS011;6522;49.622;6.126;2023-11-21T01:53:11;7.32;;;5.18;;
12908;SDS011;6522;49.622;6.126;2023-11-21T01:55:57;5.25;;;4.35;;
12908;SDS011;6522;49.622;6.126;2023-11-21T01:58:44;5.57;;;4.85;;
12908;SDS011;6522;49.622;6.126;2023-11-21T02:01:30;6.32;;;5.00;;
12908;SDS011;6522;49.622;6.126;2023-11-21T02:04:17;4.82;;;4.30;;
12908;SDS011;6522;49.622;6.126;2023-11-21T02:07:03;7.35;;;4.50;;
12908;SDS011;6522;49.622;6.126;2023-11-21T02:09:53;6.20;;;4.53;;
12908;SDS011;6522;49.622;6.126;2023-11-21T02:12:39;7.75;;;5.37;;
12908;SDS011;6522;49.622;6.126;2023-11-21T02:15:26;12.65;;;6.05;;
12908;SDS011;6522;49.622;6.126;2023-11-21T02:18:12;7.18;;;5.57;;
12908;SDS011;6522;49.622;6.126;2023-11-21T02:20:59;7.30;;;5.25;;
12908;SDS011;6522;49.622;6.126;2023-11-21T02:23:45;7.75;;;4.97;;
12908;SDS011;6522;49.622;6.126;2023-11-21T02:26:32;6.25;;;5.55;;
12908;SDS011;6522;49.622;6.126;2023-11-21T02:29:19;10.75;;;5.43;;
12908;SDS011;6522;49.622;6.126;2023-11-21T02:32:05;7.65;;;5.30;;
12908;SDS011;6522;49.622;6.126;2023-11-21T02:34:51;7.87;;;5.10;;
12908;SDS011;6522;49.622;6.126;2023-11-21T02:37:38;6.30;;;5.00;;
12908;SDS011;6522;49.622;6.126;2023-11-21T02:40:24;8.18;;;6.78;;
12908;SDS011;6522;49.622;6.126;2023-11-21T02:43:10;8.55;;;5.60;;
12908;SDS011;6522;49.622;6.126;2023-11-21T02:45:57;10.45;;;5.90;;
12908;SDS011;6522;49.622;6.126;2023-11-21T02:48:43;6.50;;;4.40;;
12908;SDS011;6522;49.622;6.126;2023-11-21T02:51:30;5.60;;;4.65;;
12908;SDS011;6522;49.622;6.126;2023-11-21T02:54:16;6.57;;;4.40;;
12908;SDS011;6522;49.622;6.126;2023-11-21T02:57:03;8.05;;;4.72;;
12908;SDS011;6522;49.622;6.126;2023-11-21T02:59:49;7.60;;;4.78;;
12908;SDS011;6522;49.622;6.126;2023-11-21T03:02:36;7.55;;;5.85;;
12908;SDS011;6522;49.622;6.126;2023-11-21T03:05:23;6.57;;;5.85;;
12908;SDS011;6522;49.622;6.126;2023-11-21T03:08:09;7.43;;;5.53;;
12908;SDS011;6522;49.622;6.126;2023-11-21T03:10:56;7.07;;;5.87;;
12908;SDS011;6522;49.622;6.126;2023-11-21T03:13:42;7.47;;;5.87;;
12908;SDS011;6522;49.622;6.126;2023-11-21T03:16:29;7.62;;;5.70;;
12908;SDS011;6522;49.622;6.126;2023-11-21T03:19:15;6.35;;;5.37;;
12908;SDS011;6522;49.622;6.126;2023-11-21T03:22:02;9.77;;;6.15;;
12908;SDS011;6522;49.622;6.126;2023-11-21T03:24:48;9.75;;;5.60;;
12908;SDS011;6522;49.622;6.126;2023-11-21T03:27:35;8.40;;;6.20;;
12908;SDS011;6522;49.622;6.126;2023-11-21T03:30:22;8.05;;;5.78;;
12908;SDS011;6522;49.622;6.126;2023-11-21T03:33:08;9.18;;;6.25;;
12908;SDS011;6522;49.622;6.126;2023-11-21T03:35:55;9.15;;;6.10;;
12908;SDS011;6522;49.622;6.126;2023-11-21T03:38:41;14.07;;;5.60;;
12908;SDS011;6522;49.622;6.126;2023-11-21T03:41:28;10.75;;;6.00;;
12908;SDS011;6522;49.622;6.126;2023-11-21T03:44:14;8.95;;;6.10;;
12908;SDS011;6522;49.622;6.126;2023-11-21T03:47:01;8.38;;;6.05;;
12908;SDS011;6522;49.622;6.126;2023-11-21T03:49:47;10.50;;;5.97;;
12908;SDS011;6522;49.622;6.126;2023-11-21T03:52:34;7.60;;;5.53;;
12908;SDS011;6522;49.622;6.126;2023-11-21T03:55:20;9.35;;;5.53;;
12908;SDS011;6522;49.622;6.126;2023-11-21T03:58:06;8.18;;;6.82;;
12908;SDS011;6522;49.622;6.126;2023-11-21T04:00:53;7.87;;;5.25;;
12908;SDS011;6522;49.622;6.126;2023-11-21T04:03:39;6.45;;;5.20;;
12908;SDS011;6522;49.622;6.126;2023-11-21T04:06:26;8.55;;;5.30;;
12908;SDS011;6522;49.622;6.126;2023-11-21T04:09:12;5.68;;;4.97;;
12908;SDS011;6522;49.622;6.126;2023-11-21T04:11:59;5.90;;;4.85;;
12908;SDS011;6522;49.622;6.126;2023-11-21T04:14:45;8.63;;;5.95;;
12908;SDS011;6522;49.622;6.126;2023-11-21T04:17:32;6.15;;;4.68;;
12908;SDS011;6522;49.622;6.126;2023-11-21T04:20:19;12.65;;;4.90;;
12908;SDS011;6522;49.622;6.126;2023-11-21T04:23:05;6.82;;;4.78;;
12908;SDS011;6522;49.622;6.126;2023-11-21T04:25:51;6.87;;;4.65;;
12908;SDS011;6522;49.622;6.126;2023-11-21T04:28:38;8.57;;;5.22;;
12908;SDS011;6522;49.622;6.126;2023-11-21T04:31:24;6.82;;;5.22;;
12908;SDS011;6522;49.622;6.126;2023-11-21T04:34:11;7.60;;;4.78;;
12908;SDS011;6522;49.622;6.126;2023-11-21T04:36:57;7.80;;;5.20;;
12908;SDS011;6522;49.622;6.126;2023-11-21T04:39:44;10.25;;;5.45;;
12908;SDS011;6522;49.622;6.126;2023-11-21T04:42:30;7.80;;;5.03;;
12908;SDS011;6522;49.622;6.126;2023-11-21T04:45:17;5.45;;;4.65;;
12908;SDS011;6522;49.622;6.126;2023-11-21T04:48:04;5.45;;;4.60;;
12908;SDS011;6522;49.622;6.126;2023-11-21T04:50:50;4.70;;;3.87;;
12908;SDS011;6522;49.622;6.126;2023-11-21T04:53:37;5.07;;;3.70;;
12908;SDS011;6522;49.622;6.126;2023-11-21T04:56:23;8.68;;;5.35;;
12908;SDS011;6522;49.622;6.126;2023-11-21T04:59:09;5.62;;;4.95;;
12908;SDS011;6522;49.622;6.126;2023-11-21T05:01:56;6.10;;;5.10;;
12908;SDS011;6522;49.622;6.126;2023-11-21T05:04:43;5.18;;;4.68;;
12908;SDS011;6522;49.622;6.126;2023-11-21T05:07:29;5.03;;;4.53;;
12908;SDS011;6522;49.622;6.126;2023-11-21T05:10:16;4.90;;;4.40;;
12908;SDS011;6522;49.622;6.126;2023-11-21T05:13:02;5.85;;;5.22;;
12908;SDS011;6522;49.622;6.126;2023-11-21T05:15:49;4.40;;;4.00;;
12908;SDS011;6522;49.622;6.126;2023-11-21T05:18:35;4.85;;;4.07;;
12908;SDS011;6522;49.622;6.126;2023-11-21T05:21:22;5.30;;;3.90;;
12908;SDS011;6522;49.622;6.126;2023-11-21T05:24:09;4.53;;;4.12;;
12908;SDS011;6522;49.622;6.126;2023-11-21T05:26:55;5.65;;;4.80;;
12908;SDS011;6522;49.622;6.126;2023-11-21T05:29:42;5.57;;;4.68;;
12908;SDS011;6522;49.622;6.126;2023-11-21T05:32:28;6.05;;;4.15;;
12908;SDS011;6522;49.622;6.126;2023-11-21T05:35:15;3.95;;;3.55;;
12908;SDS011;6522;49.622;6.126;2023-11-21T05:38:01;6.60;;;4.50;;
12908;SDS011;6522;49.622;6.126;2023-11-21T05:40:48;4.55;;;3.25;;
12908;SDS011;6522;49.622;6.126;2023-11-21T05:43:34;4.70;;;4.30;;
12908;SDS011;6522;49.622;6.126;2023-11-21T05:46:21;5.55;;;4.95;;
12908;SDS011;6522;49.622;6.126;2023-11-21T05:49:07;6.05;;;4.28;;
12908;SDS011;6522;49.622;6.126;2023-11-21T05:51:53;3.95;;;3.65;;
12908;SDS011;6522;49.622;6.126;2023-11-21T05:54:40;4.43;;;4.03;;
12908;SDS011;6522;49.622;6.126;2023-11-21T05:57:26;5.50;;;4.90;;
12908;SDS011;6522;49.622;6.126;2023-11-21T06:00:13;4.45;;;4.05;;
12908;SDS011;6522;49.622;6.126;2023-11-21T06:03:08;7.20;;;4.93;;
12908;SDS011;6522;49.622;6.126;2023-11-21T06:05:54;6.03;;;5.40;;
12908;SDS011;6522;49.622;6.126;2023-11-21T06:08:41;5.82;;;4.72;;
12908;SDS011;6522;49.622;6.126;2023-11-21T06:11:27;6.05;;;4.75;;
12908;SDS011;6522;49.622;6.126;2023-11-21T06:14:14;6.72;;;5.30;;
12908;SDS011;6522;49.622;6.126;2023-11-21T06:17:00;7.93;;;4.60;;
12908;SDS011;6522;49.622;6.126;2023-11-21T06:19:47;9.75;;;5.43;;
12908;SDS011;6522;49.622;6.126;2023-11-21T06:22:33;9.65;;;5.30;;
12908;SDS011;6522;49.622;6.126;2023-11-21T06:25:20;7.20;;;5.40;;
12908;SDS011;6522;49.622;6.126;2023-11-21T06:28:06;5.10;;;4.60;;
12908;SDS011;6522;49.622;6.126;2023-11-21T06:30:53;6.03;;;5.43;;
12908;SDS011;6522;49.622;6.126;2023-11-21T06:33:39;7.97;;;5.40;;
12908;SDS011;6522;49.622;6.126;2023-11-21T06:36:26;9.85;;;6.15;;
12908;SDS011;6522;49.622;6.126;2023-11-21T06:39:12;7.10;;;6.25;;
12908;SDS011;6522;49.622;6.126;2023-11-21T06:41:59;8.13;;;4.72;;
12908;SDS011;6522;49.622;6.126;2023-11-21T06:44:46;7.87;;;5.50;;
12908;SDS011;6522;49.622;6.126;2023-11-21T06:47:32;7.10;;;5.62;;
12908;SDS011;6522;49.622;6.126;2023-11-21T06:50:18;8.57;;;5.90;;
12908;SDS011;6522;49.622;6.126;2023-11-21T06:53:05;7.40;;;6.37;;
12908;SDS011;6522;49.622;6.126;2023-11-21T06:55:51;11.00;;;6.20;;
12908;SDS011;6522;49.622;6.126;2023-11-21T06:58:38;9.77;;;6.82;;
12908;SDS011;6522;49.622;6.126;2023-11-21T07:01:24;8.50;;;6.37;;
12908;SDS011;6522;49.622;6.126;2023-11-21T07:04:11;7.93;;;5.60;;
12908;SDS011;6522;49.622;6.126;2023-11-21T07:06:57;10.00;;;6.32;;
12908;SDS011;6522;49.622;6.126;2023-11-21T07:09:44;7.47;;;5.60;;
12908;SDS011;6522;49.622;6.126;2023-11-21T07:12:31;8.45;;;5.68;;
12908;SDS011;6522;49.622;6.126;2023-11-21T07:15:17;9.00;;;6.45;;
12908;SDS011;6522;49.622;6.126;2023-11-21T07:18:04;9.30;;;6.50;;
12908;SDS011;6522;49.622;6.126;2023-11-21T07:20:51;7.47;;;6.22;;
12908;SDS011;6522;49.622;6.126;2023-11-21T07:23:37;6.10;;;5.47;;
12908;SDS011;6522;49.622;6.126;2023-11-21T07:26:24;10.30;;;5.97;;
12908;SDS011;6522;49.622;6.126;2023-11-21T07:29:10;12.30;;;7.30;;
12908;SDS011;6522;49.622;6.126;2023-11-21T07:31:57;10.25;;;7.00;;
12908;SDS011;6522;49.622;6.126;2023-11-21T07:34:43;9.95;;;6.57;;
12908;SDS011;6522;49.622;6.126;2023-11-21T07:37:30;9.32;;;6.22;;
12908;SDS011;6522;49.622;6.126;2023-11-21T07:40:16;12.98;;;7.43;;
12908;SDS011;6522;49.622;6.126;2023-11-21T07:43:03;6.72;;;5.80;;
12908;SDS011;6522;49.622;6.126;2023-11-21T07:45:49;8.20;;;5.65;;
12908;SDS011;6522;49.622;6.126;2023-11-21T07:48:36;10.82;;;7.90;;
12908;SDS011;6522;49.622;6.126;2023-11-21T07:51:23;17.55;;;8.13;;
12908;SDS011;6522;49.622;6.126;2023-11-21T07:54:09;9.57;;;6.05;;
12908;SDS011;6522;49.622;6.126;2023-11-21T07:56:56;10.23;;;6.65;;
12908;SDS011;6522;49.622;6.126;2023-11-21T07:59:42;8.70;;;6.22;;
12908;SDS011;6522;49.622;6.126;2023-11-21T08:02:28;11.65;;;7.30;;
12908;SDS011;6522;49.622;6.126;2023-11-21T08:05:15;10.40;;;6.25;;
12908;SDS011;6522;49.622;6.126;2023-11-21T08:08:01;6.78;;;6.03;;
12908;SDS011;6522;49.622;6.126;2023-11-21T08:10:47;7.65;;;5.70;;
12908;SDS011;6522;49.622;6.126;2023-11-21T08:13:37;9.73;;;6.37;;
12908;SDS011;6522;49.622;6.126;2023-11-21T08:16:23;11.15;;;7.45;;
12908;SDS011;6522;49.622;6.126;2023-11-21T08:19:10;10.30;;;7.18;;
12908;SDS011;6522;49.622;6.126;2023-11-21T08:21:56;9.20;;;7.22;;
12908;SDS011;6522;49.622;6.126;2023-11-21T08:24:43;10.57;;;6.50;;
12908;SDS011;6522;49.622;6.126;2023-11-21T08:27:30;8.20;;;6.35;;
12908;SDS011;6522;49.622;6.126;2023-11-21T08:30:16;8.60;;;6.55;;
12908;SDS011;6522;49.622;6.126;2023-11-21T08:33:02;9.45;;;5.87;;
12908;SDS011;6522;49.622;6.126;2023-11-21T08:35:49;11.18;;;7.15;;
12908;SDS011;6522;49.622;6.126;2023-11-21T08:38:36;8.38;;;6.20;;
12908;SDS011;6522;49.622;6.126;2023-11-21T08:41:25;9.40;;;6.25;;
12908;SDS011;6522;49.622;6.126;2023-11-21T08:44:13;7.72;;;6.35;;
12908;SDS011;6522;49.622;6.126;2023-11-21T08:47:00;9.45;;;5.95;;
12908;SDS011;6522;49.622;6.126;2023-11-21T08:49:46;11.90;;;5.82;;
12908;SDS011;6522;49.622;6.126;2023-11-21T08:52:33;9.48;;;5.68;;
12908;SDS011;6522;49.622;6.126;2023-11-21T08:55:19;11.93;;;6.40;;
12908;SDS011;6522;49.622;6.126;2023-11-21T08:58:06;9.48;;;6.75;;
12908;SDS011;6522;49.622;6.126;2023-11-21T09:00:52;9.65;;;6.20;;
12908;SDS011;6522;49.622;6.126;2023-11-21T09:03:39;7.22;;;6.22;;
12908;SDS011;6522;49.622;6.126;2023-11-21T09:06:26;6.80;;;5.95;;
12908;SDS011;6522;49.622;6.126;2023-11-21T09:09:12;8.68;;;6.30;;
12908;SDS011;6522;49.622;6.126;2023-11-21T09:11:59;8.07;;;6.15;;
12908;SDS011;6522;49.622;6.126;2023-11-21T09:14:45;9.93;;;5.62;;
12908;SDS011;6522;49.622;6.126;2023-11-21T09:17:32;7.12;;;5.37;;
12908;SDS011;6522;49.622;6.126;2023-11-21T09:20:18;6.62;;;5.78;;
12908;SDS011;6522;49.622;6.126;2023-11-21T09:23:05;7.10;;;5.32;;
12908;SDS011;6522;49.622;6.126;2023-11-21T09:25:51;7.30;;;6.12;;
12908;SDS011;6522;49.622;6.126;2023-11-21T09:28:37;6.75;;;5.95;;
12908;SDS011;6522;49.622;6.126;2023-11-21T09:31:24;11.60;;;7.70;;
12908;SDS011;6522;49.622;6.126;2023-11-21T09:34:11;7.62;;;5.18;;
12908;SDS011;6522;49.622;6.126;2023-11-21T09:36:57;6.47;;;5.87;;
12908;SDS011;6522;49.622;6.126;2023-11-21T09:39:44;12.68;;;6.05;;
12908;SDS011;6522;49.622;6.126;2023-11-21T09:42:36;7.75;;;5.40;;
12908;SDS011;6522;49.622;6.126;2023-11-21T09:48:09;7.97;;;7.10;;
12908;SDS011;6522;49.622;6.126;2023-11-21T09:50:58;7.55;;;6.78;;
12908;SDS011;6522;49.622;6.126;2023-11-21T09:53:41;7.62;;;6.95;;
12908;SDS011;6522;49.622;6.126;2023-11-21T09:56:28;7.43;;;6.82;;
12908;SDS011;6522;49.622;6.126;2023-11-21T09:59:15;10.05;;;7.60;;
12908;SDS011;6522;49.622;6.126;2023-11-21T10:02:01;9.05;;;8.13;;
12908;SDS011;6522;49.622;6.126;2023-11-21T10:04:47;8.70;;;7.82;;
12908;SDS011;6522;49.622;6.126;2023-11-21T10:07:33;7.35;;;6.75;;
12908;SDS011;6522;49.622;6.126;2023-11-21T10:10:20;10.82;;;7.97;;
12908;SDS011;6522;49.622;6.126;2023-11-21T10:13:06;9.43;;;8.63;;
12908;SDS011;6522;49.622;6.126;2023-11-21T10:15:53;8.98;;;8.13;;
12908;SDS011;6522;49.622;6.126;2023-11-21T10:18:40;8.68;;;7.97;;
12908;SDS011;6522;49.622;6.126;2023-11-21T10:21:26;9.38;;;8.50;;
12908;SDS011;6522;49.622;6.126;2023-11-21T10:24:12;8.32;;;7.62;;
12908;SDS011;6522;49.622;6.126;2023-11-21T10:26:59;10.38;;;9.27;;
12908;SDS011;6522;49.622;6.126;2023-11-21T10:29:51;9.38;;;8.48;;
12908;SDS011;6522;49.622;6.126;2023-11-21T10:32:35;9.40;;;8.38;;
12908;SDS011;6522;49.622;6.126;2023-11-21T10:35:22;9.85;;;9.05;;
12908;SDS011;6522;49.622;6.126;2023-11-21T10:38:08;10.73;;;9.73;;
12908;SDS011;6522;49.622;6.126;2023-11-21T10:40:57;10.30;;;9.38;;
12908;SDS011;6522;49.622;6.126;2023-11-21T10:43:43;11.15;;;10.15;;
12908;SDS011;6522;49.622;6.126;2023-11-21T10:46:30;15.23;;;9.50;;
12908;SDS011;6522;49.622;6.126;2023-11-21T10:49:25;11.07;;;10.18;;
12908;SDS011;6522;49.622;6.126;2023-11-21T10:52:08;10.27;;;8.83;;
12908;SDS011;6522;49.622;6.126;2023-11-21T10:54:55;10.90;;;10.00;;
12908;SDS011;6522;49.622;6.126;2023-11-21T10:57:42;11.07;;;10.10;;
12908;SDS011;6522;49.622;6.126;2023-11-21T11:00:28;12.90;;;12.10;;
12908;SDS011;6522;49.622;6.126;2023-11-21T11:03:14;13.50;;;12.50;;
12908;SDS011;6522;49.622;6.126;2023-11-21T11:06:01;13.07;;;12.15;;
12908;SDS011;6522;49.622;6.126;2023-11-21T11:08:47;12.35;;;11.27;;
12908;SDS011;6522;49.622;6.126;2023-11-21T11:11:34;13.07;;;12.18;;
12908;SDS011;6522;49.622;6.126;2023-11-21T11:14:20;13.13;;;12.23;;
12908;SDS011;6522;49.622;6.126;2023-11-21T11:17:07;12.77;;;11.93;;
12908;SDS011;6522;49.622;6.126;2023-11-21T11:19:53;13.10;;;12.00;;
12908;SDS011;6522;49.622;6.126;2023-11-21T11:25:47;12.98;;;12.00;;
12908;SDS011;6522;49.622;6.126;2023-11-21T11:28:44;13.20;;;12.30;;
12908;SDS011;6522;49.622;6.126;2023-11-21T11:37:08;12.65;;;11.65;;
12908;SDS011;6522;49.622;6.126;2023-11-21T11:39:55;11.90;;;11.10;;
12908;SDS011;6522;49.622;6.126;2023-11-21T11:43:00;12.40;;;11.50;;
12908;SDS011;6522;49.622;6.126;2023-11-21T11:45:43;12.52;;;11.20;;
12908;SDS011;6522;49.622;6.126;2023-11-21T11:48:29;11.85;;;11.05;;
12908;SDS011;6522;49.622;6.126;2023-11-21T11:51:16;8.90;;;8.20;;
12908;SDS011;6522;49.622;6.126;2023-11-21T11:54:05;10.35;;;9.45;;
12908;SDS011;6522;49.622;6.126;2023-11-21T11:56:51;13.65;;;12.02;;
12908;SDS011;6522;49.622;6.126;2023-11-21T12:02:36;12.80;;;11.90;;
12908;SDS011;6522;49.622;6.126;2023-11-21T12:05:23;12.45;;;11.45;;
12908;SDS011;6522;49.622;6.126;2023-11-21T12:08:10;12.63;;;11.52;;
12908;SDS011;6522;49.622;6.126;2023-11-21T12:10:56;10.35;;;9.45;;
12908;SDS011;6522;49.622;6.126;2023-11-21T12:13:43;13.90;;;12.63;;
12908;SDS011;6522;49.622;6.126;2023-11-21T12:16:32;13.00;;;11.90;;
12908;SDS011;6522;49.622;6.126;2023-11-21T12:19:16;12.45;;;11.25;;
12908;SDS011;6522;49.622;6.126;2023-11-21T12:22:02;9.68;;;8.82;;
12908;SDS011;6522;49.622;6.126;2023-11-21T12:24:48;12.65;;;11.65;;
12908;SDS011;6522;49.622;6.126;2023-11-21T12:27:35;12.65;;;11.60;;
12908;SDS011;6522;49.622;6.126;2023-11-21T12:30:22;13.25;;;12.20;;
12908;SDS011;6522;49.622;6.126;2023-11-21T12:33:08;11.50;;;10.80;;
12908;SDS011;6522;49.622;6.126;2023-11-21T12:35:54;13.40;;;12.30;;
12908;SDS011;6522;49.622;6.126;2023-11-21T12:38:41;10.27;;;9.27;;
12908;SDS011;6522;49.622;6.126;2023-11-21T12:41:28;12.25;;;11.43;;
12908;SDS011;6522;49.622;6.126;2023-11-21T12:44:14;13.90;;;12.55;;
12908;SDS011;6522;49.622;6.126;2023-11-21T12:47:01;13.62;;;12.68;;
12908;SDS011;6522;49.622;6.126;2023-11-21T12:49:47;13.27;;;12.37;;
12908;SDS011;6522;49.622;6.126;2023-11-21T12:52:34;12.98;;;12.05;;
12908;SDS011;6522;49.622;6.126;2023-11-21T12:55:21;13.68;;;12.30;;
12908;SDS011;6522;49.622;6.126;2023-11-21T12:58:07;16.70;;;15.52;;
12908;SDS011;6522;49.622;6.126;2023-11-21T13:00:56;14.40;;;13.40;;
12908;SDS011;6522;49.622;6.126;2023-11-21T13:03:42;14.75;;;13.55;;
12908;SDS011;6522;49.622;6.126;2023-11-21T13:06:29;13.88;;;13.07;;
12908;SDS011;6522;49.622;6.126;2023-11-21T13:09:16;11.10;;;10.00;;
12908;SDS011;6522;49.622;6.126;2023-11-21T13:12:02;14.07;;;13.27;;
12908;SDS011;6522;49.622;6.126;2023-11-21T13:14:48;15.40;;;14.00;;
12908;SDS011;6522;49.622;6.126;2023-11-21T13:17:35;15.07;;;13.75;;
12908;SDS011;6522;49.622;6.126;2023-11-21T13:20:21;14.07;;;12.90;;
12908;SDS011;6522;49.622;6.126;2023-11-21T13:23:08;11.85;;;10.95;;
12908;SDS011;6522;49.622;6.126;2023-11-21T13:25:55;15.00;;;14.10;;
12908;SDS011;6522;49.622;6.126;2023-11-21T13:28:41;15.13;;;13.98;;
12908;SDS011;6522;49.622;6.126;2023-11-21T13:31:28;15.60;;;14.60;;
12908;SDS011;6522;49.622;6.126;2023-11-21T13:34:14;17.33;;;16.42;;
12908;SDS011;6522;49.622;6.126;2023-11-21T13:37:01;15.32;;;14.52;;
12908;SDS011;6522;49.622;6.126;2023-11-21T13:39:48;15.00;;;14.10;;
12908;SDS011;6522;49.622;6.126;2023-11-21T13:42:34;14.07;;;13.20;;
12908;SDS011;6522;49.622;6.126;2023-11-21T13:45:21;13.93;;;13.13;;
12908;SDS011;6522;49.622;6.126;2023-11-21T13:48:08;15.07;;;13.77;;
12908;SDS011;6522;49.622;6.126;2023-11-21T13:50:54;13.93;;;13.02;;
12908;SDS011;6522;49.622;6.126;2023-11-21T13:53:59;14.40;;;13.62;;
12908;SDS011;6522;49.622;6.126;2023-11-21T13:56:46;14.20;;;13.40;;
12908;SDS011;6522;49.622;6.126;2023-11-21T13:59:31;10.23;;;9.43;;
12908;SDS011;6522;49.622;6.126;2023-11-21T14:02:18;15.13;;;14.20;;
12908;SDS011;6522;49.622;6.126;2023-11-21T14:05:04;14.63;;;13.55;;
12908;SDS011;6522;49.622;6.126;2023-11-21T14:07:51;14.95;;;13.85;;
12908;SDS011;6522;49.622;6.126;2023-11-21T14:10:37;10.95;;;10.15;;
12908;SDS011;6522;49.622;6.126;2023-11-21T14:13:27;12.40;;;11.40;;
12908;SDS011;6522;49.622;6.126;2023-11-21T14:16:14;15.38;;;14.48;;
12908;SDS011;6522;49.622;6.126;2023-11-21T14:19:00;14.23;;;13.45;;
12908;SDS011;6522;49.622;6.126;2023-11-21T14:21:47;14.52;;;13.73;;
12908;SDS011;6522;49.622;6.126;2023-11-21T14:24:33;11.02;;;10.10;;
12908;SDS011;6522;49.622;6.126;2023-11-21T14:27:20;14.25;;;13.20;;
12908;SDS011;6522;49.622;6.126;2023-11-21T14:30:06;13.70;;;12.80;;
12908;SDS011;6522;49.622;6.126;2023-11-21T14:32:52;13.43;;;12.70;;
12908;SDS011;6522;49.622;6.126;2023-11-21T14:35:39;12.82;;;12.10;;
12908;SDS011;6522;49.622;6.126;2023-11-21T14:38:25;13.27;;;12.27;;
12908;SDS011;6522;49.622;6.126;2023-11-21T14:41:12;13.40;;;12.48;;
12908;SDS011;6522;49.622;6.126;2023-11-21T14:43:58;9.18;;;8.68;;
12908;SDS011;6522;49.622;6.126;2023-11-21T14:46:45;13.25;;;12.55;;
12908;SDS011;6522;49.622;6.126;2023-11-21T14:49:31;13.02;;;12.32;;
12908;SDS011;6522;49.622;6.126;2023-11-21T14:52:18;13.90;;;13.07;;
12908;SDS011;6522;49.622;6.126;2023-11-21T14:55:10;14.45;;;13.43;;
12908;SDS011;6522;49.622;6.126;2023-11-21T14:58:15;14.38;;;13.68;;
12908;SDS011;6522;49.622;6.126;2023-11-21T15:01:01;14.60;;;13.90;;
12908;SDS011;6522;49.622;6.126;2023-11-21T15:03:48;16.00;;;15.20;;
12908;SDS011;6522;49.622;6.126;2023-11-21T15:06:34;15.27;;;14.48;;
12908;SDS011;6522;49.622;6.126;2023-11-21T15:09:21;15.57;;;14.87;;
12908;SDS011;6522;49.622;6.126;2023-11-21T15:12:10;15.80;;;14.95;;
12908;SDS011;6522;49.622;6.126;2023-11-21T15:15:02;12.90;;;12.00;;
12908;SDS011;6522;49.622;6.126;2023-11-21T15:17:48;15.65;;;14.75;;
12908;SDS011;6522;49.622;6.126;2023-11-21T15:20:35;17.02;;;15.90;;
12908;SDS011;6522;49.622;6.126;2023-11-21T15:23:22;15.15;;;14.35;;
12908;SDS011;6522;49.622;6.126;2023-11-21T15:26:08;13.90;;;13.18;;
12908;SDS011;6522;49.622;6.126;2023-11-21T15:28:55;14.68;;;13.68;;
12908;SDS011;6522;49.622;6.126;2023-11-21T15:31:41;16.62;;;12.55;;
12908;SDS011;6522;49.622;6.126;2023-11-21T15:34:27;13.43;;;12.40;;
12908;SDS011;6522;49.622;6.126;2023-11-21T15:37:14;12.85;;;12.05;;
12908;SDS011;6522;49.622;6.126;2023-11-21T15:40:00;9.77;;;8.98;;
12908;SDS011;6522;49.622;6.126;2023-11-21T15:42:46;9.27;;;8.45;;
12908;SDS011;6522;49.622;6.126;2023-11-21T15:45:33;12.25;;;11.45;;
12908;SDS011;6522;49.622;6.126;2023-11-21T15:48:19;12.00;;;11.30;;
12908;SDS011;6522;49.622;6.126;2023-11-21T15:51:06;12.35;;;11.12;;
12908;SDS011;6522;49.622;6.126;2023-11-21T15:53:52;11.05;;;10.10;;
12908;SDS011;6522;49.622;6.126;2023-11-21T15:56:38;10.75;;;9.90;;
12908;SDS011;6522;49.622;6.126;2023-11-21T15:59:25;10.40;;;9.60;;
12908;SDS011;6522;49.622;6.126;2023-11-21T16:02:11;9.82;;;9.10;;
12908;SDS011;6522;49.622;6.126;2023-11-21T16:04:58;9.02;;;8.43;;
12908;SDS011;6522;49.622;6.126;2023-11-21T16:07:44;9.75;;;8.95;;
12908;SDS011;6522;49.622;6.126;2023-11-21T16:10:30;8.60;;;7.90;;
12908;SDS011;6522;49.622;6.126;2023-11-21T16:13:17;9.00;;;8.13;;
12908;SDS011;6522;49.622;6.126;2023-11-21T16:16:04;8.82;;;8.13;;
12908;SDS011;6522;49.622;6.126;2023-11-21T16:18:50;8.32;;;6.10;;
12908;SDS011;6522;49.622;6.126;2023-11-21T16:21:37;9.05;;;8.43;;
12908;SDS011;6522;49.622;6.126;2023-11-21T16:24:24;8.13;;;7.43;;
12908;SDS011;6522;49.622;6.126;2023-11-21T16:27:10;8.32;;;7.62;;
12908;SDS011;6522;49.622;6.126;2023-11-21T16:29:57;8.27;;;7.22;;
12908;SDS011;6522;49.622;6.126;2023-11-21T16:32:43;7.35;;;6.75;;
12908;SDS011;6522;49.622;6.126;2023-11-21T16:35:30;9.38;;;8.25;;
12908;SDS011;6522;49.622;6.126;2023-11-21T16:38:16;9.57;;;7.25;;
12908;SDS011;6522;49.622;6.126;2023-11-21T16:41:02;7.20;;;6.50;;
12908;SDS011;6522;49.622;6.126;2023-11-21T16:43:49;7.87;;;7.28;;
12908;SDS011;6522;49.622;6.126;2023-11-21T16:46:36;6.85;;;5.10;;
12908;SDS011;6522;49.622;6.126;2023-11-21T16:49:23;8.50;;;7.00;;
12908;SDS011;6522;49.622;6.126;2023-11-21T16:52:09;8.38;;;7.57;;
12908;SDS011;6522;49.622;6.126;2023-11-21T16:54:55;7.85;;;7.10;;
12908;SDS011;6522;49.622;6.126;2023-11-21T16:57:41;7.80;;;6.78;;
12908;SDS011;6522;49.622;6.126;2023-11-21T17:00:28;8.47;;;6.40;;
12908;SDS011;6522;49.622;6.126;2023-11-21T17:03:14;8.32;;;7.53;;
12908;SDS011;6522;49.622;6.126;2023-11-21T17:06:00;8.18;;;7.37;;